createdAt,value
2017-08-13T00:01:51.252Z,25.90
2017-08-13T00:04:19.081Z,25.97
2017-08-13T00:06:46.960Z,26.70
2017-08-13T00:09:14.825Z,25.10
2017-08-13T00:11:42.711Z,24.30
2017-08-13T00:14:10.575Z,24.03
2017-08-13T00:16:38.404Z,25.17
2017-08-13T00:19:06.213Z,31.83
2017-08-13T00:21:34.024Z,28.33
2017-08-13T00:24:01.808Z,26.60
2017-08-13T00:26:29.642Z,31.73
2017-08-13T00:28:57.525Z,31.37
2017-08-13T00:31:25.369Z,39.43
2017-08-13T00:33:53.236Z,27.03
2017-08-13T00:36:21.046Z,39.27
2017-08-13T00:38:48.963Z,48.40
2017-08-13T00:41:16.807Z,32.87
2017-08-13T00:43:44.684Z,33.90
2017-08-13T00:46:12.518Z,39.33
2017-08-13T00:48:40.344Z,33.40
2017-08-13T00:51:08.197Z,41.97
2017-08-13T00:53:36.048Z,42.47
2017-08-13T00:56:03.934Z,29.90
2017-08-13T00:58:31.751Z,40.90
2017-08-13T01:00:59.665Z,36.80
2017-08-13T01:03:27.464Z,41.33
2017-08-13T01:05:55.391Z,38.50
2017-08-13T01:08:23.217Z,35.27
2017-08-13T01:10:51.089Z,39.43
2017-08-13T01:13:18.901Z,52.10
2017-08-13T01:15:46.809Z,42.70
2017-08-13T01:18:14.609Z,41.93
2017-08-13T01:20:42.392Z,42.80
2017-08-13T01:23:10.207Z,30.33
2017-08-13T01:25:38.028Z,33.13
2017-08-13T01:28:05.895Z,35.17
2017-08-13T01:30:33.733Z,36.70
2017-08-13T01:33:01.600Z,40.50
2017-08-13T01:35:29.428Z,48.87
2017-08-13T01:37:57.229Z,33.80
2017-08-13T01:40:25.064Z,33.03
2017-08-13T01:42:52.820Z,42.40
2017-08-13T01:45:20.623Z,34.73
2017-08-13T01:47:48.517Z,44.83
2017-08-13T01:50:16.354Z,31.97
2017-08-13T01:52:44.156Z,37.43
2017-08-13T01:55:12.013Z,42.40
2017-08-13T01:57:39.853Z,36.90
2017-08-13T02:00:07.715Z,33.13
2017-08-13T02:02:35.537Z,40.67
2017-08-13T02:05:03.403Z,40.87
2017-08-13T02:07:31.264Z,38.07
2017-08-13T02:09:59.106Z,49.83
2017-08-13T02:12:26.917Z,29.73
2017-08-13T02:14:54.783Z,31.77
2017-08-13T02:17:22.623Z,38.37
2017-08-13T02:19:50.455Z,37.87
2017-08-13T02:22:18.315Z,47.83
2017-08-13T02:24:46.138Z,34.13
2017-08-13T02:27:14.019Z,41.63
2017-08-13T02:29:41.888Z,38.20
2017-08-13T02:32:09.755Z,34.10
2017-08-13T02:34:37.576Z,37.43
2017-08-13T02:37:05.483Z,31.90
2017-08-13T02:39:33.322Z,40.17
2017-08-13T02:42:01.095Z,55.20
2017-08-13T02:44:28.926Z,39.20
2017-08-13T02:46:56.783Z,32.90
2017-08-13T02:49:24.595Z,35.47
2017-08-13T02:51:52.420Z,33.03
2017-08-13T02:54:20.209Z,33.70
2017-08-13T02:56:48.047Z,44.57
2017-08-13T02:59:15.924Z,53.37
2017-08-13T03:01:43.742Z,32.47
2017-08-13T03:04:11.606Z,30.40
2017-08-13T03:06:39.343Z,22.23
2017-08-13T03:09:07.188Z,26.77
2017-08-13T03:11:35.009Z,27.03
2017-08-13T03:14:02.890Z,27.90
2017-08-13T03:16:30.716Z,28.07
2017-08-13T03:18:58.581Z,28.50
2017-08-13T03:21:26.409Z,24.80
2017-08-13T03:23:54.193Z,27.33
2017-08-13T03:26:22.035Z,30.83
2017-08-13T03:28:49.843Z,35.40
2017-08-13T03:31:17.705Z,30.03
2017-08-13T03:33:45.539Z,24.07
2017-08-13T03:36:13.416Z,26.10
2017-08-13T03:38:41.225Z,36.83
2017-08-13T03:41:09.142Z,29.17
2017-08-13T03:43:36.969Z,23.10
2017-08-13T03:46:04.829Z,19.50
2017-08-13T03:48:32.653Z,25.13
2017-08-13T03:51:00.505Z,24.70
2017-08-13T03:53:28.323Z,25.33
2017-08-13T03:55:56.118Z,18.60
2017-08-13T03:58:23.951Z,21.53
2017-08-13T04:00:51.776Z,20.17
2017-08-13T04:03:19.618Z,17.00
2017-08-13T04:05:47.499Z,20.83
2017-08-13T04:08:15.365Z,14.63
2017-08-13T04:10:43.201Z,21.60
2017-08-13T04:13:11.100Z,19.87
2017-08-13T04:15:38.912Z,18.80
2017-08-13T04:18:06.770Z,25.43
2017-08-13T04:20:34.601Z,16.10
2017-08-13T04:23:02.457Z,14.50
2017-08-13T04:25:30.281Z,28.83
2017-08-13T04:27:58.117Z,18.07
2017-08-13T04:30:25.993Z,22.53
2017-08-13T04:32:53.821Z,16.77
2017-08-13T04:35:21.692Z,14.33
2017-08-13T04:37:49.515Z,19.33
2017-08-13T04:40:17.423Z,16.27
2017-08-13T04:42:45.153Z,17.90
2017-08-13T04:45:13.015Z,21.63
2017-08-13T04:47:40.834Z,19.07
2017-08-13T04:50:08.724Z,18.97
2017-08-13T04:52:36.533Z,16.03
2017-08-13T04:55:04.400Z,17.60
2017-08-13T04:57:32.139Z,16.30
2017-08-13T04:59:59.972Z,16.37
2017-08-13T05:02:27.849Z,16.03
2017-08-13T05:04:55.701Z,14.40
2017-08-13T05:07:23.604Z,15.10
2017-08-13T05:09:51.451Z,16.00
2017-08-13T05:12:19.315Z,18.87
2017-08-13T05:14:47.113Z,17.97
2017-08-13T05:17:14.981Z,18.07
2017-08-13T05:19:42.789Z,15.40
2017-08-13T05:22:10.643Z,19.40
2017-08-13T05:24:38.451Z,13.27
2017-08-13T05:27:06.343Z,10.57
2017-08-13T05:29:34.193Z,16.90
2017-08-13T05:32:02.060Z,12.63
2017-08-13T05:34:29.878Z,20.50
2017-08-13T05:36:57.703Z,13.30
2017-08-13T05:39:25.589Z,20.07
2017-08-13T05:41:53.400Z,15.10
2017-08-13T05:44:21.267Z,12.40
2017-08-13T05:46:49.084Z,11.03
2017-08-13T05:49:16.961Z,11.30
2017-08-13T05:51:44.796Z,13.33
2017-08-13T05:54:12.686Z,19.83
2017-08-13T05:56:40.498Z,19.93
2017-08-13T05:59:08.376Z,22.27
2017-08-13T06:01:36.231Z,16.03
2017-08-13T06:04:04.145Z,18.27
2017-08-13T06:06:31.996Z,14.73
2017-08-13T06:08:59.869Z,16.07
2017-08-13T06:11:27.700Z,16.37
2017-08-13T06:13:55.535Z,21.53
2017-08-13T06:16:23.436Z,12.90
2017-08-13T06:18:51.282Z,14.83
2017-08-13T06:21:19.164Z,15.27
2017-08-13T06:23:47.033Z,18.80
2017-08-13T06:26:14.908Z,15.07
2017-08-13T06:28:42.716Z,15.20
2017-08-13T06:31:10.629Z,16.07
2017-08-13T06:33:38.381Z,13.63
2017-08-13T06:36:06.265Z,15.13
2017-08-13T06:38:34.104Z,15.03
2017-08-13T06:41:01.970Z,12.00
2017-08-13T06:43:29.697Z,13.77
2017-08-13T06:45:57.506Z,14.93
2017-08-13T06:48:25.231Z,11.80
2017-08-13T06:50:52.984Z,13.90
2017-08-13T06:53:20.728Z,15.60
2017-08-13T06:55:48.430Z,13.83
2017-08-13T06:58:16.215Z,16.33
2017-08-13T07:00:43.963Z,14.83
2017-08-13T07:03:11.721Z,17.67
2017-08-13T07:05:39.450Z,16.87
2017-08-13T07:08:07.247Z,14.93
2017-08-13T07:10:35.015Z,18.23
2017-08-13T07:13:02.798Z,10.40
2017-08-13T07:15:30.512Z,13.60
2017-08-13T07:17:58.332Z,16.73
2017-08-13T07:20:26.053Z,13.67
2017-08-13T07:22:54.375Z,11.50
2017-08-13T07:25:22.175Z,12.30
2017-08-13T07:27:49.931Z,13.50
2017-08-13T07:30:17.675Z,9.73
2017-08-13T07:32:45.417Z,10.60
2017-08-13T07:35:13.200Z,10.97
2017-08-13T07:37:40.932Z,11.23
2017-08-13T07:40:08.709Z,9.60
2017-08-13T07:42:36.447Z,14.83
2017-08-13T07:45:04.325Z,11.97
2017-08-13T07:47:32.145Z,10.50
2017-08-13T07:49:59.931Z,8.73
2017-08-13T07:52:27.751Z,8.23
2017-08-13T07:54:55.605Z,9.90
2017-08-13T07:57:23.382Z,7.77
2017-08-13T07:59:51.311Z,12.50
2017-08-13T08:02:19.173Z,16.23
2017-08-13T08:04:47.004Z,11.77
2017-08-13T08:07:14.908Z,11.37
2017-08-13T08:09:42.734Z,6.53
2017-08-13T08:12:10.535Z,12.57
2017-08-13T08:14:38.349Z,9.13
2017-08-13T08:17:06.202Z,8.30
2017-08-13T08:19:33.972Z,9.90
2017-08-13T08:22:01.845Z,6.77
2017-08-13T08:24:29.716Z,7.27
2017-08-13T08:26:57.581Z,6.13
2017-08-13T08:29:25.406Z,7.10
2017-08-13T08:31:53.282Z,9.63
2017-08-13T08:34:21.098Z,6.17
2017-08-13T08:36:48.903Z,7.87
2017-08-13T08:39:16.717Z,7.33
2017-08-13T08:41:44.568Z,10.67
2017-08-13T08:44:12.428Z,6.60
2017-08-13T08:46:40.280Z,7.70
2017-08-13T08:49:08.059Z,4.27
2017-08-13T08:51:35.879Z,5.63
2017-08-13T08:54:03.652Z,11.23
2017-08-13T08:56:31.362Z,6.00
2017-08-13T08:58:59.156Z,8.30
2017-08-13T09:01:26.890Z,5.53
2017-08-13T09:03:54.705Z,7.07
2017-08-13T09:06:22.568Z,4.80
2017-08-13T09:08:50.415Z,4.53
2017-08-13T09:11:18.296Z,4.63
2017-08-13T09:13:46.132Z,5.20
2017-08-13T09:16:14.004Z,8.40
2017-08-13T09:18:41.850Z,5.47
2017-08-13T09:21:09.723Z,5.57
2017-08-13T09:23:37.571Z,6.70
2017-08-13T09:26:05.442Z,3.67
2017-08-13T09:28:33.250Z,6.43
2017-08-13T09:31:02.093Z,5.63
2017-08-13T09:33:29.921Z,4.97
2017-08-13T09:35:57.849Z,9.50
2017-08-13T09:38:25.700Z,5.77
2017-08-13T09:40:53.536Z,6.10
2017-08-13T09:43:21.343Z,9.30
2017-08-13T09:45:49.080Z,3.33
2017-08-13T09:48:16.876Z,14.47
2017-08-13T09:50:44.588Z,5.60
2017-08-13T09:53:12.383Z,3.50
2017-08-13T09:55:40.130Z,3.83
2017-08-13T09:58:07.920Z,6.73
2017-08-13T10:00:35.755Z,4.80
2017-08-13T10:03:03.667Z,7.47
2017-08-13T10:05:31.552Z,5.60
2017-08-13T10:07:59.488Z,3.63
2017-08-13T10:10:27.353Z,3.83
2017-08-13T10:12:55.216Z,2.30
2017-08-13T10:15:23.119Z,6.53
2017-08-13T10:17:50.954Z,3.13
2017-08-13T10:20:18.848Z,3.97
2017-08-13T10:22:46.690Z,4.30
2017-08-13T10:25:14.579Z,2.67
2017-08-13T10:27:42.425Z,3.77
2017-08-13T10:30:10.320Z,2.63
2017-08-13T10:32:38.161Z,3.97
2017-08-13T10:35:06.018Z,3.77
2017-08-13T10:37:33.857Z,5.60
2017-08-13T10:40:01.738Z,4.10
2017-08-13T10:42:29.579Z,4.70
2017-08-13T10:44:57.431Z,3.67
2017-08-13T10:47:25.210Z,5.03
2017-08-13T10:49:53.063Z,4.70
2017-08-13T10:52:20.917Z,4.10
2017-08-13T10:54:48.743Z,4.83
2017-08-13T10:57:16.625Z,3.20
2017-08-13T10:59:44.455Z,2.77
2017-08-13T11:02:12.345Z,2.00
2017-08-13T11:04:40.164Z,3.20
2017-08-13T11:07:08.522Z,2.40
2017-08-13T11:09:36.355Z,2.37
2017-08-13T11:12:04.289Z,2.10
2017-08-13T11:14:32.124Z,3.47
2017-08-13T11:16:59.997Z,4.80
2017-08-13T11:19:27.858Z,4.00
2017-08-13T11:21:55.750Z,2.57
2017-08-13T11:24:23.594Z,4.60
2017-08-13T11:26:51.499Z,6.13
2017-08-13T11:29:19.316Z,2.70
2017-08-13T11:31:47.202Z,6.80
2017-08-13T11:34:15.056Z,6.83
2017-08-13T11:36:42.957Z,8.13
2017-08-13T11:39:10.764Z,5.87
2017-08-13T11:41:38.640Z,5.70
2017-08-13T11:44:06.463Z,6.90
2017-08-13T11:46:34.345Z,5.93
2017-08-13T11:49:02.157Z,5.93
2017-08-13T11:51:30.166Z,4.40
2017-08-13T11:53:57.963Z,5.20
2017-08-13T11:56:25.806Z,4.90
2017-08-13T11:58:53.694Z,3.20
2017-08-13T12:01:21.523Z,4.23
2017-08-13T12:03:49.410Z,3.13
2017-08-13T12:06:17.294Z,4.23
2017-08-13T12:08:45.151Z,3.30
2017-08-13T12:11:12.964Z,7.53
2017-08-13T12:13:41.187Z,2.83
2017-08-13T12:16:09.027Z,4.83
2017-08-13T12:18:36.903Z,2.80
2017-08-13T12:21:04.727Z,9.23
2017-08-13T12:23:32.584Z,3.90
2017-08-13T12:26:00.435Z,2.90
2017-08-13T12:28:28.377Z,4.80
2017-08-13T12:30:56.194Z,2.60
2017-08-13T12:33:23.996Z,3.83
2017-08-13T12:35:51.869Z,3.37
2017-08-13T12:38:19.701Z,4.53
2017-08-13T12:40:47.567Z,7.23
2017-08-13T12:43:15.387Z,4.73
2017-08-13T12:45:43.316Z,2.17
2017-08-13T12:48:11.169Z,3.00
2017-08-13T12:50:39.082Z,2.87
2017-08-13T12:53:06.922Z,3.53
2017-08-13T12:55:34.830Z,2.60
2017-08-13T12:58:02.694Z,3.63
2017-08-13T13:00:30.565Z,2.70
2017-08-13T13:02:58.468Z,3.73
2017-08-13T13:05:26.313Z,5.37
2017-08-13T13:07:54.250Z,3.17
2017-08-13T13:10:22.146Z,2.63
2017-08-13T13:12:49.935Z,1.97
2017-08-13T13:15:17.787Z,5.90
2017-08-13T13:17:45.661Z,1.77
2017-08-13T13:20:13.513Z,3.77
2017-08-13T13:22:41.417Z,4.27
2017-08-13T13:25:09.262Z,3.50
2017-08-13T13:27:37.162Z,3.13
2017-08-13T13:30:04.998Z,2.70
2017-08-13T13:32:32.874Z,1.50
2017-08-13T13:35:00.695Z,3.10
2017-08-13T13:37:28.540Z,9.47
2017-08-13T13:39:56.420Z,1.43
2017-08-13T13:42:24.175Z,2.20
2017-08-13T13:44:52.064Z,2.50
2017-08-13T13:47:19.928Z,4.40
2017-08-13T13:49:47.823Z,2.20
2017-08-13T13:52:15.680Z,2.17
2017-08-13T13:54:43.570Z,3.23
2017-08-13T13:57:11.396Z,3.13
2017-08-13T13:59:39.296Z,2.20
2017-08-13T14:02:07.152Z,3.57
2017-08-13T14:04:35.057Z,2.27
2017-08-13T14:07:02.953Z,2.83
2017-08-13T14:09:30.903Z,3.47
2017-08-13T14:11:58.764Z,3.13
2017-08-13T14:14:26.600Z,4.60
2017-08-13T14:16:54.506Z,2.10
2017-08-13T14:19:22.348Z,1.97
2017-08-13T14:21:50.231Z,6.13
2017-08-13T14:24:18.113Z,3.13
2017-08-13T14:26:46.004Z,2.80
2017-08-13T14:29:13.831Z,3.10
2017-08-13T14:31:41.714Z,3.73
2017-08-13T14:34:09.552Z,3.33
2017-08-13T14:36:37.424Z,4.40
2017-08-13T14:39:05.308Z,2.70
2017-08-13T14:41:33.196Z,3.30
2017-08-13T14:44:01.017Z,3.50
2017-08-13T14:46:28.903Z,2.20
2017-08-13T14:48:56.787Z,8.40
2017-08-13T14:51:24.645Z,5.37
2017-08-13T14:53:52.433Z,2.50
2017-08-13T14:56:20.278Z,4.17
2017-08-13T14:58:48.170Z,5.07
2017-08-13T15:01:16.013Z,4.63
2017-08-13T15:03:43.871Z,2.40
2017-08-13T15:06:11.741Z,3.20
2017-08-13T15:08:39.724Z,4.70
2017-08-13T15:11:07.571Z,5.10
2017-08-13T15:13:35.489Z,4.43
2017-08-13T15:16:03.338Z,4.80
2017-08-13T15:18:31.176Z,3.67
2017-08-13T15:20:59.055Z,6.20
2017-08-13T15:23:26.893Z,3.80
2017-08-13T15:25:54.786Z,3.10
2017-08-13T15:28:22.625Z,2.33
2017-08-13T15:30:50.505Z,3.77
2017-08-13T15:33:18.365Z,7.30
2017-08-13T15:35:46.418Z,7.30
2017-08-13T15:38:14.247Z,5.30
2017-08-13T15:40:42.132Z,2.70
2017-08-13T15:43:09.952Z,5.03
2017-08-13T15:45:37.839Z,4.87
2017-08-13T15:48:05.706Z,2.97
2017-08-13T15:50:33.611Z,5.10
2017-08-13T15:53:01.443Z,5.23
2017-08-13T15:55:29.317Z,3.40
2017-08-13T15:57:57.162Z,5.00
2017-08-13T16:00:24.994Z,2.43
2017-08-13T16:02:52.878Z,2.63
2017-08-13T16:05:20.693Z,3.17
2017-08-13T16:07:48.617Z,5.57
2017-08-13T16:10:16.439Z,1.73
2017-08-13T16:12:44.380Z,5.53
2017-08-13T16:15:12.257Z,5.47
2017-08-13T16:17:40.146Z,2.53
2017-08-13T16:20:08.044Z,3.80
2017-08-13T16:22:35.985Z,2.50
2017-08-13T16:25:03.875Z,3.57
2017-08-13T16:27:31.792Z,4.67
2017-08-13T16:29:59.638Z,3.70
2017-08-13T16:32:27.520Z,3.00
2017-08-13T16:34:55.338Z,4.80
2017-08-13T16:37:23.160Z,2.43
2017-08-13T16:39:51.050Z,2.87
2017-08-13T16:42:18.856Z,5.40
2017-08-13T16:44:46.759Z,6.53
2017-08-13T16:47:14.664Z,3.40
2017-08-13T16:49:42.595Z,5.03
2017-08-13T16:52:10.436Z,5.17
2017-08-13T16:54:38.301Z,2.70
2017-08-13T16:57:06.175Z,2.63
2017-08-13T16:59:34.044Z,4.40
2017-08-13T17:02:01.858Z,6.23
2017-08-13T17:04:29.747Z,5.60
2017-08-13T17:06:57.630Z,2.40
2017-08-13T17:09:25.476Z,4.30
2017-08-13T17:11:53.357Z,5.30
2017-08-13T17:14:21.243Z,4.00
2017-08-13T17:16:49.184Z,9.53
2017-08-13T17:19:17.049Z,3.00
2017-08-13T17:21:44.960Z,3.00
2017-08-13T17:24:12.796Z,2.33
2017-08-13T17:26:40.672Z,4.97
2017-08-13T17:29:08.511Z,4.17
2017-08-13T17:31:36.380Z,3.57
2017-08-13T17:34:04.225Z,5.17
2017-08-13T17:36:32.112Z,6.93
2017-08-13T17:38:59.938Z,6.90
2017-08-13T17:41:27.772Z,5.13
2017-08-13T17:43:55.663Z,3.70
2017-08-13T17:46:23.508Z,2.30
2017-08-13T17:48:51.395Z,3.87
2017-08-13T17:51:19.237Z,2.87
2017-08-13T17:53:47.257Z,5.77
2017-08-13T17:56:15.122Z,3.53
2017-08-13T17:58:42.987Z,2.10
2017-08-13T18:01:10.830Z,5.20
2017-08-13T18:03:38.703Z,3.23
2017-08-13T18:06:06.648Z,3.67
2017-08-13T18:08:34.543Z,5.50
2017-08-13T18:11:02.381Z,3.30
2017-08-13T18:13:30.137Z,2.03
2017-08-13T18:15:57.986Z,8.23
2017-08-13T18:18:25.816Z,5.70
2017-08-13T18:20:53.693Z,3.50
2017-08-13T18:23:21.566Z,5.03
2017-08-13T18:25:49.421Z,4.50
2017-08-13T18:28:17.280Z,2.90
2017-08-13T18:30:45.262Z,5.10
2017-08-13T18:33:13.085Z,10.33
2017-08-13T18:35:40.977Z,6.63
2017-08-13T18:38:08.824Z,4.73
2017-08-13T18:40:36.712Z,4.03
2017-08-13T18:43:04.569Z,2.93
2017-08-13T18:45:32.424Z,5.70
2017-08-13T18:48:00.335Z,3.93
2017-08-13T18:50:28.190Z,2.60
2017-08-13T18:52:56.057Z,4.30
2017-08-13T18:55:23.881Z,5.40
2017-08-13T18:57:51.791Z,8.47
2017-08-13T19:00:19.657Z,8.73
2017-08-13T19:02:47.550Z,3.77
2017-08-13T19:05:15.393Z,4.07
2017-08-13T19:07:43.322Z,5.00
2017-08-13T19:10:11.196Z,5.77
2017-08-13T19:12:38.965Z,5.67
2017-08-13T19:15:06.802Z,3.30
2017-08-13T19:17:34.711Z,5.83
2017-08-13T19:20:02.749Z,6.30
2017-08-13T19:22:30.609Z,5.30
2017-08-13T19:24:58.494Z,5.10
2017-08-13T19:27:26.351Z,8.40
2017-08-13T19:29:54.243Z,8.83
2017-08-13T19:32:22.093Z,12.90
2017-08-13T19:34:50.018Z,3.70
2017-08-13T19:37:17.856Z,6.00
2017-08-13T19:39:45.735Z,4.00
2017-08-13T19:42:13.574Z,9.47
2017-08-13T19:44:41.478Z,3.60
2017-08-13T19:47:09.305Z,3.40
2017-08-13T19:49:37.103Z,3.57
2017-08-13T19:52:04.976Z,2.77
2017-08-13T19:54:32.890Z,3.73
2017-08-13T19:57:00.655Z,3.20
2017-08-13T19:59:28.497Z,3.70
2017-08-13T20:01:56.387Z,3.27
2017-08-13T20:04:24.255Z,3.40
2017-08-13T20:06:52.186Z,4.37
2017-08-13T20:09:20.032Z,5.40
2017-08-13T20:11:47.945Z,3.97
2017-08-13T20:14:15.808Z,4.70
2017-08-13T20:16:43.720Z,4.10
2017-08-13T20:19:11.534Z,4.00
2017-08-13T20:21:39.425Z,3.83
2017-08-13T20:24:07.235Z,4.63
2017-08-13T20:26:35.100Z,2.77
2017-08-13T20:29:02.901Z,3.50
2017-08-13T20:31:30.815Z,4.37
2017-08-13T20:33:58.678Z,4.07
2017-08-13T20:36:26.531Z,3.53
2017-08-13T20:38:54.447Z,3.40
2017-08-13T20:41:22.273Z,6.30
2017-08-13T20:43:50.060Z,4.00
2017-08-13T20:46:17.799Z,3.43
2017-08-13T20:48:45.693Z,6.67
2017-08-13T20:51:13.508Z,2.87
2017-08-13T20:53:41.427Z,4.47
2017-08-13T20:56:09.263Z,4.00
2017-08-13T20:58:37.142Z,3.60
2017-08-13T21:01:04.988Z,3.70
2017-08-13T21:03:32.818Z,4.13
2017-08-13T21:06:00.717Z,4.50
2017-08-13T21:08:28.605Z,3.80
2017-08-13T21:10:56.505Z,5.70
2017-08-13T21:13:24.382Z,4.50
2017-08-13T21:15:52.255Z,5.20
2017-08-13T21:18:20.102Z,3.37
2017-08-13T21:20:47.987Z,3.23
2017-08-13T21:23:15.740Z,4.93
2017-08-13T21:25:43.534Z,4.30
2017-08-13T21:28:11.342Z,3.37
2017-08-13T21:30:39.230Z,5.63
2017-08-13T21:33:07.096Z,5.03
2017-08-13T21:35:34.936Z,3.50
2017-08-13T21:38:02.706Z,3.47
2017-08-13T21:40:30.536Z,3.50
2017-08-13T21:42:58.320Z,4.20
2017-08-13T21:45:26.172Z,3.20
2017-08-13T21:47:54.045Z,3.07
2017-08-13T21:50:21.855Z,5.73
2017-08-13T21:52:49.641Z,3.43
2017-08-13T21:55:17.450Z,3.03
2017-08-13T21:57:45.209Z,2.90
2017-08-13T22:00:13.078Z,3.20
2017-08-13T22:02:40.948Z,6.03
2017-08-13T22:05:08.791Z,3.90
2017-08-13T22:07:36.706Z,4.37
2017-08-13T22:10:04.531Z,3.20
2017-08-13T22:12:32.450Z,4.70
2017-08-13T22:15:00.269Z,5.20
2017-08-13T22:17:28.072Z,6.77
2017-08-13T22:19:55.939Z,3.87
2017-08-13T22:22:23.795Z,7.10
2017-08-13T22:24:51.697Z,4.63
2017-08-13T22:27:19.431Z,3.83
2017-08-13T22:29:47.300Z,3.80
2017-08-13T22:32:15.108Z,5.80
2017-08-13T22:34:42.975Z,3.87
2017-08-13T22:37:10.810Z,3.43
2017-08-13T22:39:38.684Z,3.30
2017-08-13T22:42:06.511Z,3.53
2017-08-13T22:44:34.385Z,4.10
2017-08-13T22:47:02.227Z,6.13
2017-08-13T22:49:30.080Z,4.20
2017-08-13T22:51:57.901Z,4.23
2017-08-13T22:54:25.705Z,9.93
2017-08-13T22:56:53.503Z,5.50
2017-08-13T22:59:21.309Z,6.63
2017-08-13T23:01:49.141Z,3.83
2017-08-13T23:04:16.978Z,5.33
2017-08-13T23:06:44.864Z,4.70
2017-08-13T23:09:12.702Z,5.63
2017-08-13T23:11:40.587Z,3.60
2017-08-13T23:14:08.376Z,3.50
2017-08-13T23:16:36.367Z,3.27
2017-08-13T23:19:04.189Z,3.40
2017-08-13T23:21:32.060Z,4.40
2017-08-13T23:23:59.866Z,5.10
2017-08-13T23:26:27.710Z,3.60
2017-08-13T23:28:55.592Z,3.20
2017-08-13T23:31:23.423Z,5.40
2017-08-13T23:33:51.273Z,3.73
2017-08-13T23:36:19.106Z,3.57
2017-08-13T23:38:46.961Z,5.80
2017-08-13T23:41:14.798Z,7.63
2017-08-13T23:43:42.688Z,12.20
2017-08-13T23:46:10.503Z,5.83
2017-08-13T23:48:38.332Z,6.63
2017-08-13T23:51:06.251Z,6.67
2017-08-13T23:53:34.048Z,2.80
2017-08-13T23:56:01.904Z,3.07
2017-08-13T23:58:29.732Z,6.07
